Time;durP1;ratioP1;P1;durP2;ratioP2;P2;SDS_P1;SDS_P2;PMS_P1;PMS_P2;Temp;Humidity;BMP_temperature;BMP_pressure;BME280_temperature;BME280_humidity;BME280_pressure;Samples;Min_cycle;Max_cycle;Signal;HPM_P1;HPM_P2
2020/12/12 00:02:17;;;;;;;18.95;13.73;;;6.30;73.70;;;;;;5052822;28;20438;-71
2020/12/12 00:04:43;;;;;;;21.35;14.32;;;6.30;73.00;;;;;;5052444;28;20724;-71
2020/12/12 00:07:08;;;;;;;17.40;13.40;;;6.20;73.80;;;;;;5046566;28;20382;-71
2020/12/12 00:09:35;;;;;;;17.50;13.23;;;6.30;73.50;;;;;;5050473;28;20412;-70
2020/12/12 00:12:00;;;;;;;18.50;13.00;;;6.30;72.80;;;;;;5052418;28;20939;-71
2020/12/12 00:14:26;;;;;;;21.17;13.43;;;6.30;73.10;;;;;;5052217;28;20392;-70
2020/12/12 00:16:52;;;;;;;19.00;13.37;;;6.30;73.70;;;;;;5053002;28;20377;-71
2020/12/12 00:19:18;;;;;;;17.88;13.25;;;6.40;71.60;;;;;;5051707;28;20459;-72
2020/12/12 00:21:43;;;;;;;18.13;13.13;;;6.40;71.70;;;;;;5051960;28;20413;-73
2020/12/12 00:24:09;;;;;;;20.57;12.97;;;6.40;71.80;;;;;;5045723;28;20425;-73
2020/12/12 00:26:34;;;;;;;16.77;12.80;;;6.40;71.10;;;;;;5031714;28;20444;-72
2020/12/12 00:29:00;;;;;;;17.40;13.00;;;6.40;72.70;;;;;;5031406;28;20418;-72
2020/12/12 00:31:25;;;;;;;18.97;13.10;;;6.40;74.50;;;;;;5031446;28;20399;-72
2020/12/12 00:33:51;;;;;;;18.33;13.50;;;6.50;74.90;;;;;;5031293;28;20876;-72
2020/12/12 00:36:17;;;;;;;20.33;14.03;;;6.40;76.40;;;;;;5041199;28;20862;-71
2020/12/12 00:38:43;;;;;;;17.90;13.70;;;6.40;78.70;;;;;;5050125;28;20401;-72
2020/12/12 00:41:08;;;;;;;19.88;14.23;;;6.30;80.60;;;;;;5051050;28;20393;-72
2020/12/12 00:43:34;;;;;;;18.70;13.63;;;6.30;81.10;;;;;;5051000;28;20531;-72
2020/12/12 00:46:01;;;;;;;19.20;13.70;;;6.30;81.20;;;;;;5051022;28;20942;-71
2020/12/12 00:48:26;;;;;;;20.38;14.68;;;6.30;81.80;;;;;;5050923;28;20397;-73
2020/12/12 00:50:52;;;;;;;22.95;14.63;;;6.20;82.50;;;;;;5050994;28;20390;-72
2020/12/12 00:53:17;;;;;;;21.85;14.82;;;6.20;83.60;;;;;;5033711;28;20399;-72
2020/12/12 00:55:43;;;;;;;19.30;13.95;;;6.20;85.00;;;;;;5029769;28;20410;-71
2020/12/12 00:58:09;;;;;;;20.57;14.23;;;6.10;85.60;;;;;;5030958;28;20386;-71
2020/12/12 01:00:34;;;;;;;18.50;13.70;;;6.10;85.60;;;;;;5029604;28;20405;-70
2020/12/12 01:03:04;;;;;;;22.23;15.33;;;6.10;85.90;;;;;;5030629;28;20389;-71
2020/12/12 01:05:33;;;;;;;19.77;14.50;;;6.00;86.70;;;;;;5033310;28;20960;-72
2020/12/12 01:07:59;;;;;;;21.83;14.80;;;6.00;87.40;;;;;;5042690;28;20401;-72
2020/12/12 01:10:25;;;;;;;22.50;15.37;;;6.00;87.50;;;;;;5032400;28;20800;-72
2020/12/12 01:12:51;;;;;;;21.67;15.23;;;5.90;88.00;;;;;;5030530;28;20387;-73
2020/12/12 01:15:18;;;;;;;22.63;15.50;;;6.00;86.40;;;;;;5030840;28;20390;-70
2020/12/12 01:17:44;;;;;;;22.25;15.68;;;5.90;86.30;;;;;;5030747;28;20654;-71
2020/12/12 01:20:09;;;;;;;23.27;15.90;;;5.80;87.60;;;;;;5038997;28;20401;-71
2020/12/12 01:22:35;;;;;;;20.83;15.25;;;5.80;88.60;;;;;;5050379;28;20862;-71
2020/12/12 01:25:02;;;;;;;23.35;15.32;;;5.80;87.90;;;;;;5050207;28;20385;-71
2020/12/12 01:27:28;;;;;;;21.75;15.30;;;5.80;87.90;;;;;;5050141;28;20377;-71
2020/12/12 01:29:53;;;;;;;23.40;14.80;;;5.90;86.70;;;;;;5050217;28;20910;-72
2020/12/12 01:32:19;;;;;;;20.37;14.27;;;5.90;86.00;;;;;;5049624;28;20389;-73
2020/12/12 01:34:44;;;;;;;19.03;13.73;;;6.00;86.00;;;;;;5035126;28;20402;-71
2020/12/12 01:37:10;;;;;;;22.07;15.00;;;6.00;85.00;;;;;;5047645;28;20377;-71
2020/12/12 01:39:36;;;;;;;22.52;15.30;;;6.00;85.10;;;;;;5050176;28;20442;-72
2020/12/12 01:42:01;;;;;;;20.57;14.57;;;6.10;84.80;;;;;;5050200;28;20393;-71
2020/12/12 01:44:27;;;;;;;19.53;14.10;;;6.10;84.20;;;;;;5049880;28;20392;-71
2020/12/12 01:46:54;;;;;;;18.60;13.70;;;6.20;82.10;;;;;;5049281;28;20405;-71
2020/12/12 01:49:20;;;;;;;16.10;12.50;;;6.30;79.90;;;;;;5049471;28;20420;-71
2020/12/12 01:51:47;;;;;;;18.40;13.25;;;6.30;79.90;;;;;;5049840;28;20400;-71
2020/12/12 01:54:14;;;;;;;19.48;13.18;;;6.40;79.40;;;;;;5049636;28;20392;-72
2020/12/12 01:56:40;;;;;;;17.13;12.65;;;6.40;78.70;;;;;;5049758;28;20531;-72
2020/12/12 01:59:06;;;;;;;18.65;12.50;;;6.40;78.20;;;;;;5049678;28;20385;-71
2020/12/12 02:01:37;;;;;;;15.15;12.23;;;6.40;78.00;;;;;;5042493;28;20497;-71
2020/12/12 02:04:05;;;;;;;17.83;12.73;;;6.40;77.60;;;;;;5029603;28;20386;-72
2020/12/12 02:06:30;;;;;;;17.45;12.85;;;6.50;76.50;;;;;;5030729;28;20466;-72
2020/12/12 02:08:57;;;;;;;17.77;12.70;;;6.50;77.00;;;;;;5049452;28;20501;-72
2020/12/12 02:11:22;;;;;;;15.23;12.27;;;6.50;76.60;;;;;;5048241;28;20393;-71
2020/12/12 02:13:48;;;;;;;17.30;12.47;;;6.50;76.50;;;;;;5048734;28;20406;-72
2020/12/12 02:16:23;;;;;;;15.20;12.00;;;6.50;77.60;;;;;;5049181;28;20795;-71
2020/12/12 02:18:49;;;;;;;15.57;11.55;;;6.60;75.90;;;;;;5049293;28;20402;-72
2020/12/12 02:21:15;;;;;;;17.00;12.37;;;6.70;75.70;;;;;;5049410;28;20477;-72
2020/12/12 02:23:40;;;;;;;15.35;12.05;;;6.70;74.60;;;;;;5033749;28;20445;-72
2020/12/12 02:26:06;;;;;;;16.00;12.27;;;6.70;75.40;;;;;;5029500;28;20794;-71
2020/12/12 02:28:54;;;;;;;15.25;11.73;;;6.70;74.40;;;;;;5029474;28;20415;-70
2020/12/12 02:31:24;;;;;;;15.73;12.13;;;6.70;74.30;;;;;;5028088;28;20692;-74
2020/12/12 02:33:50;;;;;;;15.32;11.90;;;6.80;73.40;;;;;;5029519;28;20395;-71
2020/12/12 02:36:15;;;;;;;16.63;12.80;;;6.80;72.70;;;;;;5039196;28;20928;-72
2020/12/12 02:38:42;;;;;;;17.77;12.63;;;6.70;73.40;;;;;;5049348;28;20857;-71
2020/12/12 02:41:09;;;;;;;15.43;12.25;;;6.70;74.50;;;;;;5049316;28;20408;-71
2020/12/12 02:43:34;;;;;;;14.83;11.70;;;6.80;74.20;;;;;;5052225;28;20397;-72
2020/12/12 02:46:00;;;;;;;17.38;12.43;;;6.80;73.70;;;;;;5053088;28;20408;-72
2020/12/12 02:48:25;;;;;;;16.93;11.93;;;6.70;74.10;;;;;;5053271;28;20374;-72
2020/12/12 02:50:51;;;;;;;16.50;12.07;;;6.80;73.20;;;;;;5053177;28;20404;-71
2020/12/12 02:53:16;;;;;;;16.55;12.15;;;6.80;72.70;;;;;;5051239;28;20389;-70
2020/12/12 02:55:42;;;;;;;16.48;12.50;;;6.80;72.60;;;;;;5052907;28;20938;-71
2020/12/12 02:58:07;;;;;;;18.10;12.17;;;6.80;73.40;;;;;;5053330;28;20871;-71
2020/12/12 03:00:33;;;;;;;16.03;11.73;;;6.90;72.30;;;;;;5053794;28;20863;-70
2020/12/12 03:02:59;;;;;;;15.25;11.05;;;6.90;72.70;;;;;;5053873;28;20476;-71
2020/12/12 03:05:24;;;;;;;16.05;12.30;;;6.80;72.90;;;;;;5035197;28;20898;-71
2020/12/12 03:07:50;;;;;;;15.48;12.38;;;6.90;72.40;;;;;;5046618;28;20404;-70
2020/12/12 03:10:15;;;;;;;16.00;12.00;;;6.90;72.50;;;;;;5054399;28;20409;-70
2020/12/12 03:12:41;;;;;;;16.80;12.13;;;6.90;72.60;;;;;;5054241;28;20382;-71
2020/12/12 03:15:09;;;;;;;15.77;12.18;;;6.80;72.70;;;;;;5053699;28;20374;-71
2020/12/12 03:17:35;;;;;;;15.23;11.43;;;6.80;73.30;;;;;;5054556;28;20400;-73
2020/12/12 03:20:02;;;;;;;14.82;11.40;;;6.90;72.90;;;;;;5054758;28;20385;-71
2020/12/12 03:22:27;;;;;;;18.33;12.80;;;7.00;72.00;;;;;;5055012;28;20386;-72
2020/12/12 03:24:53;;;;;;;17.17;12.70;;;7.00;71.60;;;;;;5054588;28;20388;-74
2020/12/12 03:27:18;;;;;;;15.73;11.90;;;7.00;72.00;;;;;;5049869;28;20649;-70
2020/12/12 03:29:44;;;;;;;18.10;12.87;;;7.00;71.40;;;;;;5034539;28;20410;-70
2020/12/12 03:32:11;;;;;;;15.50;11.90;;;6.90;71.80;;;;;;5034435;28;20394;-71
2020/12/12 03:34:38;;;;;;;17.27;12.27;;;6.90;72.30;;;;;;5034648;28;20537;-71
2020/12/12 03:37:04;;;;;;;17.75;13.00;;;6.90;73.40;;;;;;5050760;28;20386;-71
2020/12/12 03:39:30;;;;;;;16.40;11.85;;;6.90;73.00;;;;;;5053321;28;20460;-71
2020/12/12 03:41:55;;;;;;;19.35;14.20;;;7.00;72.20;;;;;;5054222;28;20397;-72
2020/12/12 03:44:21;;;;;;;17.58;12.45;;;7.00;72.10;;;;;;5053955;28;20730;-71
2020/12/12 03:46:47;;;;;;;17.10;13.17;;;7.00;72.60;;;;;;5054351;28;20436;-70
2020/12/12 03:49:12;;;;;;;16.70;12.90;;;7.00;72.30;;;;;;5053890;28;20817;-70
2020/12/12 03:51:38;;;;;;;17.00;12.70;;;7.00;71.90;;;;;;5041748;28;20900;-71
2020/12/12 03:54:03;;;;;;;18.00;13.30;;;7.00;72.20;;;;;;5033520;28;20429;-72
2020/12/12 03:56:29;;;;;;;19.30;13.60;;;7.00;72.20;;;;;;5034356;28;20674;-71
2020/12/12 03:58:54;;;;;;;18.03;12.80;;;7.00;72.20;;;;;;5034187;28;20422;-70
2020/12/12 04:01:20;;;;;;;17.07;12.73;;;7.00;72.40;;;;;;5033740;28;20391;-72
2020/12/12 04:03:46;;;;;;;18.67;13.07;;;7.00;72.10;;;;;;5047112;28;20393;-71
2020/12/12 04:06:11;;;;;;;19.10;13.30;;;7.10;71.80;;;;;;5053608;28;20932;-71
2020/12/12 04:08:37;;;;;;;17.90;13.03;;;7.10;71.30;;;;;;5045675;28;20401;-71
2020/12/12 04:11:02;;;;;;;21.90;13.73;;;7.10;71.00;;;;;;5053807;28;20753;-70
2020/12/12 04:13:29;;;;;;;20.10;14.27;;;7.10;71.40;;;;;;5051935;28;20390;-70
2020/12/12 04:15:55;;;;;;;20.00;13.90;;;7.00;72.50;;;;;;5043369;28;20475;-71
2020/12/12 04:18:21;;;;;;;23.42;14.20;;;7.10;72.60;;;;;;5033201;28;20461;-70
2020/12/12 04:20:46;;;;;;;19.10;13.80;;;7.20;71.50;;;;;;5032779;28;20379;-70
2020/12/12 04:23:12;;;;;;;20.23;13.70;;;7.20;71.40;;;;;;5032456;28;20418;-70
2020/12/12 04:25:38;;;;;;;20.63;14.65;;;7.10;71.50;;;;;;5032614;28;20386;-70
2020/12/12 04:28:04;;;;;;;20.25;14.02;;;7.10;72.90;;;;;;5042857;28;20393;-72
2020/12/12 04:30:30;;;;;;;21.23;14.75;;;7.20;72.10;;;;;;5051343;28;20878;-71
2020/12/12 04:32:55;;;;;;;26.10;16.20;;;7.10;72.40;;;;;;5051191;28;20388;-71
2020/12/12 04:35:21;;;;;;;22.80;16.00;;;7.20;72.90;;;;;;5051295;28;20389;-71
2020/12/12 04:37:46;;;;;;;24.40;15.80;;;7.10;74.40;;;;;;5051343;28;20385;-71
2020/12/12 04:40:13;;;;;;;21.87;16.20;;;7.00;75.80;;;;;;5050357;28;20797;-72
2020/12/12 04:42:42;;;;;;;21.95;15.30;;;7.10;74.40;;;;;;5050442;28;20414;-71
2020/12/12 04:45:09;;;;;;;22.27;15.65;;;7.10;74.30;;;;;;5050902;28;20388;-73
2020/12/12 04:47:35;;;;;;;24.50;15.70;;;7.00;75.30;;;;;;5051047;28;20476;-71
2020/12/12 04:50:01;;;;;;;22.45;16.13;;;7.10;74.20;;;;;;5050957;28;20540;-73
2020/12/12 04:52:30;;;;;;;23.60;15.50;;;7.00;75.00;;;;;;5048032;28;20459;-72
2020/12/12 04:54:56;;;;;;;27.20;16.30;;;7.00;75.90;;;;;;5030734;28;20481;-73
2020/12/12 04:57:21;;;;;;;24.70;16.50;;;7.10;76.60;;;;;;5030997;28;20732;-71
2020/12/12 04:59:49;;;;;;;25.83;17.20;;;7.10;77.40;;;;;;5030801;28;20390;-71
2020/12/12 05:02:15;;;;;;;25.38;16.92;;;7.10;78.20;;;;;;5030755;28;20391;-71
2020/12/12 05:04:41;;;;;;;25.60;17.40;;;7.10;78.70;;;;;;5036243;28;20424;-71
2020/12/12 05:07:07;;;;;;;25.30;16.88;;;7.00;80.10;;;;;;5043919;28;20383;-71
2020/12/12 05:09:33;;;;;;;25.30;17.50;;;7.00;80.30;;;;;;5048221;28;20944;-71
2020/12/12 05:11:58;;;;;;;25.90;18.27;;;7.00;80.80;;;;;;5050375;28;20393;-71
2020/12/12 05:14:24;;;;;;;27.52;18.25;;;6.90;81.30;;;;;;5049991;28;20369;-72
2020/12/12 05:16:50;;;;;;;29.35;17.88;;;6.90;82.90;;;;;;5049845;28;20396;-72
2020/12/12 05:19:15;;;;;;;30.83;18.53;;;6.90;83.80;;;;;;5050441;28;20405;-70
2020/12/12 05:21:52;;;;;;;28.40;18.10;;;6.90;85.80;;;;;;5037208;28;20406;-70
2020/12/12 05:24:18;;;;;;;32.10;19.80;;;6.80;85.10;;;;;;5030202;28;20507;-71
2020/12/12 05:26:45;;;;;;;32.10;19.73;;;6.80;87.50;;;;;;5030228;28;20829;-72
2020/12/12 05:29:15;;;;;;;30.00;19.20;;;6.70;88.60;;;;;;5034034;28;20415;-71
2020/12/12 05:31:41;;;;;;;33.93;20.60;;;6.80;88.40;;;;;;5050198;28;20840;-72
2020/12/12 05:34:13;;;;;;;34.38;20.92;;;6.80;89.30;;;;;;5049895;28;20377;-74
2020/12/12 05:36:40;;;;;;;31.48;20.55;;;6.80;89.60;;;;;;5049973;28;20407;-72
2020/12/12 05:39:10;;;;;;;34.05;20.45;;;6.80;89.70;;;;;;5049967;28;20390;-72
2020/12/12 05:41:36;;;;;;;35.20;21.90;;;6.70;90.10;;;;;;5049510;28;20742;-73
2020/12/12 05:44:01;;;;;;;39.65;21.85;;;6.70;91.00;;;;;;5049799;28;20754;-72
2020/12/12 05:46:28;;;;;;;34.23;21.50;;;6.70;90.90;;;;;;5049888;28;20377;-72
2020/12/12 05:48:54;;;;;;;36.40;22.27;;;6.80;90.50;;;;;;5049954;28;20766;-72
2020/12/12 05:51:20;;;;;;;37.67;22.38;;;6.70;91.40;;;;;;5049951;28;20393;-72
2020/12/12 05:53:47;;;;;;;35.90;21.95;;;6.70;91.90;;;;;;5038091;28;20868;-73
2020/12/12 05:56:14;;;;;;;35.13;22.88;;;6.60;92.40;;;;;;5029844;28;20402;-72
2020/12/12 05:58:40;;;;;;;39.33;22.92;;;6.70;92.00;;;;;;5029938;28;20382;-72
2020/12/12 06:01:21;;;;;;;37.78;23.13;;;6.60;92.30;;;;;;5028720;28;20542;-72
2020/12/12 06:04:00;;;;;;;38.35;22.50;;;6.70;91.60;;;;;;5026669;28;21168;-71
2020/12/12 06:06:26;;;;;;;35.25;21.40;;;6.70;92.50;;;;;;5048232;28;20393;-72
2020/12/12 06:09:05;;;;;;;40.30;21.88;;;6.70;92.00;;;;;;5041224;28;20404;-71
2020/12/12 06:11:32;;;;;;;38.60;22.63;;;6.70;91.60;;;;;;5049718;28;20378;-74
2020/12/12 06:14:03;;;;;;;39.95;23.15;;;6.80;91.00;;;;;;5047954;28;20374;-71
2020/12/12 06:16:32;;;;;;;38.15;22.98;;;6.80;91.20;;;;;;5048736;28;20845;-72
2020/12/12 06:19:06;;;;;;;39.95;23.35;;;6.80;91.80;;;;;;5049424;28;20403;-73
2020/12/12 06:21:33;;;;;;;37.58;22.85;;;6.80;89.70;;;;;;5048296;28;20412;-70
2020/12/12 06:23:59;;;;;;;36.55;23.27;;;6.80;90.80;;;;;;5049291;28;20800;-70
2020/12/12 06:26:47;;;;;;;39.38;23.25;;;6.90;90.10;;;;;;5031474;28;20443;-70
2020/12/12 06:29:14;;;;;;;39.63;23.73;;;6.80;90.90;;;;;;5028131;28;20548;-70
2020/12/12 06:31:42;;;;;;;39.50;23.60;;;6.80;92.10;;;;;;5029316;28;20780;-72
2020/12/12 06:34:07;;;;;;;39.00;23.40;;;6.80;92.10;;;;;;5039732;28;20384;-69
2020/12/12 06:36:34;;;;;;;37.90;23.00;;;6.90;91.80;;;;;;5049261;28;20396;-70
2020/12/12 06:39:22;;;;;;;39.03;23.50;;;6.80;92.60;;;;;;5049417;28;20442;-70
2020/12/12 06:41:53;;;;;;;41.17;23.70;;;6.80;94.20;;;;;;5049482;28;20866;-70
2020/12/12 06:44:41;;;;;;;39.15;23.13;;;6.80;93.80;;;;;;5048926;28;20996;-71
2020/12/12 06:47:08;;;;;;;40.25;24.00;;;6.80;93.10;;;;;;5029609;28;20420;-70
2020/12/12 06:49:36;;;;;;;41.63;23.88;;;6.80;93.30;;;;;;5029198;28;20403;-72
2020/12/12 06:52:02;;;;;;;39.30;22.97;;;6.80;94.40;;;;;;5029311;28;20435;-72
2020/12/12 06:54:28;;;;;;;40.92;24.02;;;6.70;95.40;;;;;;5029027;28;20401;-70
2020/12/12 06:56:54;;;;;;;41.43;24.37;;;6.70;96.40;;;;;;5029153;28;20383;-70
2020/12/12 06:59:49;;;;;;;39.20;22.23;;;6.70;96.00;;;;;;5029319;28;20399;-71
2020/12/12 07:02:17;;;;;;;44.43;24.97;;;6.70;96.40;;;;;;5028670;28;20409;-70
2020/12/12 07:04:46;;;;;;;38.83;22.60;;;6.80;96.30;;;;;;5027740;28;20398;-71
2020/12/12 07:07:16;;;;;;;36.75;22.67;;;6.80;95.50;;;;;;5035227;28;20390;-70
2020/12/12 07:09:42;;;;;;;39.60;22.33;;;6.70;95.10;;;;;;5048752;28;20400;-71
2020/12/12 07:12:08;;;;;;;37.13;23.05;;;6.70;96.00;;;;;;5048895;28;20381;-70
2020/12/12 07:14:36;;;;;;;38.75;22.67;;;6.70;96.30;;;;;;5047947;28;20451;-70
2020/12/12 07:17:03;;;;;;;41.40;22.95;;;6.70;95.90;;;;;;5048915;28;20418;-70
2020/12/12 07:19:41;;;;;;;35.10;21.30;;;6.70;94.80;;;;;;5048882;28;20682;-70
2020/12/12 07:22:11;;;;;;;36.08;22.63;;;6.80;95.30;;;;;;5048738;28;20450;-71
2020/12/12 07:24:38;;;;;;;35.85;21.88;;;6.80;94.90;;;;;;5046757;28;20769;-70
2020/12/12 07:27:04;;;;;;;35.42;21.73;;;6.90;93.20;;;;;;5028589;28;20387;-72
2020/12/12 07:29:30;;;;;;;36.63;22.40;;;6.80;92.90;;;;;;5030482;28;20398;-70
2020/12/12 07:31:57;;;;;;;34.47;21.27;;;6.90;92.70;;;;;;5032405;28;20387;-71
2020/12/12 07:34:24;;;;;;;37.33;21.52;;;6.80;93.20;;;;;;5032031;28;20439;-70
2020/12/12 07:36:58;;;;;;;36.20;22.13;;;6.80;92.60;;;;;;5046478;28;20863;-72
2020/12/12 07:39:33;;;;;;;34.63;21.17;;;6.90;92.40;;;;;;5051815;28;20408;-72
2020/12/12 07:42:00;;;;;;;35.40;21.95;;;6.90;93.10;;;;;;5052097;28;20412;-70
2020/12/12 07:44:31;;;;;;;36.95;21.20;;;6.90;93.10;;;;;;5051254;28;20381;-71
2020/12/12 07:47:06;;;;;;;37.05;21.85;;;6.90;92.80;;;;;;5052307;28;20409;-70
2020/12/12 07:49:33;;;;;;;31.98;20.23;;;6.90;93.20;;;;;;5051746;28;20452;-71
2020/12/12 07:52:10;;;;;;;42.03;22.90;;;6.90;93.90;;;;;;5034332;28;20391;-69
2020/12/12 07:55:00;;;;;;;39.57;21.83;;;6.90;93.30;;;;;;5031446;28;20386;-71
2020/12/12 07:57:26;;;;;;;35.03;21.05;;;6.90;93.40;;;;;;5031903;28;20421;-70
2020/12/12 07:59:51;;;;;;;33.47;21.30;;;7.00;94.10;;;;;;5031549;28;20391;-72
2020/12/12 08:02:17;;;;;;;34.15;21.50;;;6.90;93.80;;;;;;5031238;28;20395;-71
2020/12/12 08:04:42;;;;;;;36.85;21.88;;;7.00;93.20;;;;;;5049311;28;20413;-71
2020/12/12 08:07:20;;;;;;;34.00;20.90;;;6.90;94.00;;;;;;5045468;28;20748;-71
2020/12/12 08:09:51;;;;;;;34.50;21.70;;;6.90;94.20;;;;;;5050410;28;20758;-71
2020/12/12 08:12:43;;;;;;;33.15;21.60;;;7.00;93.90;;;;;;5051715;28;20419;-69
2020/12/12 08:15:25;;;;;;;34.60;21.92;;;7.00;93.40;;;;;;5049650;28;20802;-70
2020/12/12 08:17:50;;;;;;;34.97;21.33;;;7.00;93.50;;;;;;5051332;28;20428;-71
2020/12/12 08:20:25;;;;;;;32.92;20.80;;;7.00;93.60;;;;;;5040602;28;22567;-70
2020/12/12 08:22:51;;;;;;;37.88;21.40;;;7.10;92.50;;;;;;5031462;28;20376;-70
2020/12/12 08:25:18;;;;;;;33.13;20.98;;;7.10;92.40;;;;;;5032058;28;20484;-71
2020/12/12 08:27:44;;;;;;;36.72;21.08;;;7.10;92.80;;;;;;5032042;28;20394;-71
2020/12/12 08:30:09;;;;;;;34.10;21.00;;;7.10;92.30;;;;;;5046334;28;20416;-72
2020/12/12 08:32:39;;;;;;;33.15;21.15;;;7.10;91.70;;;;;;5051107;28;20385;-73
2020/12/12 08:35:11;;;;;;;35.03;20.52;;;7.20;91.50;;;;;;5041806;28;20391;-71
2020/12/12 08:38:05;;;;;;;34.05;20.63;;;7.10;91.10;;;;;;5051042;28;20435;-76
2020/12/12 08:40:43;;;;;;;35.47;20.88;;;7.10;91.60;;;;;;5044971;28;20908;-71
2020/12/12 08:43:11;;;;;;;32.80;20.40;;;7.20;91.60;;;;;;5030550;28;20416;-72
2020/12/12 08:45:39;;;;;;;32.60;20.45;;;7.20;90.30;;;;;;5030522;28;20426;-71
2020/12/12 08:48:10;;;;;;;34.38;20.92;;;7.30;90.00;;;;;;5037067;28;20759;-71
2020/12/12 08:50:50;;;;;;;36.22;20.73;;;7.20;89.80;;;;;;5044287;28;20453;-70
2020/12/12 08:53:35;;;;;;;33.33;21.40;;;7.20;90.40;;;;;;5030165;28;20416;-69
2020/12/12 08:56:15;;;;;;;31.13;19.75;;;7.20;90.40;;;;;;5030177;28;20398;-71
2020/12/12 08:58:45;;;;;;;29.75;20.30;;;7.30;90.20;;;;;;5033880;28;20399;-71
2020/12/12 09:01:16;;;;;;;29.60;19.40;;;7.30;90.10;;;;;;5037426;28;20401;-71
2020/12/12 09:03:56;;;;;;;38.13;22.60;;;7.30;90.20;;;;;;5032249;28;20414;-70
2020/12/12 09:06:22;;;;;;;32.38;20.17;;;7.30;90.30;;;;;;5035842;28;20425;-71
2020/12/12 09:09:13;;;;;;;30.23;20.67;;;7.40;89.00;;;;;;5040223;28;20405;-71
2020/12/12 09:11:41;;;;;;;30.83;20.27;;;7.40;89.20;;;;;;5047062;28;20436;-72
2020/12/12 09:14:07;;;;;;;28.85;20.08;;;7.40;89.70;;;;;;5030785;28;20400;-71
2020/12/12 09:16:33;;;;;;;29.87;20.30;;;7.40;90.30;;;;;;5030079;28;20399;-72
2020/12/12 09:18:59;;;;;;;32.47;19.73;;;7.50;90.00;;;;;;5033733;28;20443;-70
2020/12/12 09:21:25;;;;;;;29.92;19.00;;;7.60;88.60;;;;;;5043827;28;20912;-71
2020/12/12 09:23:51;;;;;;;31.50;19.23;;;7.70;88.40;;;;;;5034893;28;20767;-70
2020/12/12 09:26:19;;;;;;;32.88;20.77;;;7.60;89.00;;;;;;5046475;28;20432;-71
2020/12/12 09:28:45;;;;;;;29.17;18.75;;;7.60;90.40;;;;;;5033669;28;20415;-70
2020/12/12 09:31:12;;;;;;;30.73;19.63;;;7.60;89.50;;;;;;5029850;28;20907;-70
2020/12/12 09:33:38;;;;;;;29.20;19.27;;;7.60;89.70;;;;;;5029498;28;20457;-72
2020/12/12 09:36:04;;;;;;;30.83;19.92;;;7.60;90.90;;;;;;5042413;28;20393;-69
2020/12/12 09:38:30;;;;;;;30.97;19.80;;;7.50;92.50;;;;;;5044283;28;20450;-70
2020/12/12 09:40:56;;;;;;;29.98;18.67;;;7.70;90.90;;;;;;5051375;28;20387;-70
2020/12/12 09:43:22;;;;;;;29.08;19.63;;;7.60;91.20;;;;;;5042439;28;20396;-74
2020/12/12 09:45:47;;;;;;;33.33;20.20;;;7.50;91.60;;;;;;5042505;28;20399;-75
2020/12/12 09:48:14;;;;;;;34.40;19.90;;;7.50;92.20;;;;;;5039412;28;20427;-71
2020/12/12 09:50:40;;;;;;;30.40;20.25;;;7.40;92.90;;;;;;5044582;28;20650;-73
2020/12/12 09:53:08;;;;;;;30.08;20.15;;;7.40;93.70;;;;;;5036495;28;20395;-73
2020/12/12 09:55:35;;;;;;;33.07;19.70;;;7.40;94.10;;;;;;5035211;28;20484;-73
2020/12/12 09:58:05;;;;;;;32.03;20.13;;;7.40;94.50;;;;;;5036316;28;20399;-74
2020/12/12 10:00:31;;;;;;;30.92;19.13;;;7.50;95.00;;;;;;5036911;28;20396;-74
2020/12/12 10:02:56;;;;;;;28.88;19.33;;;7.50;94.40;;;;;;5037122;28;20922;-73
2020/12/12 10:05:22;;;;;;;27.50;19.42;;;7.60;94.20;;;;;;5046688;28;20409;-75
2020/12/12 10:07:48;;;;;;;27.58;18.40;;;7.60;93.70;;;;;;5042274;28;20405;-73
2020/12/12 10:10:14;;;;;;;33.70;19.27;;;7.60;93.60;;;;;;5041349;28;20436;-73
2020/12/12 10:12:39;;;;;;;27.40;18.48;;;7.70;92.60;;;;;;5050989;28;20415;-74
2020/12/12 10:15:05;;;;;;;33.87;19.30;;;7.70;92.40;;;;;;5037843;28;20395;-75
2020/12/12 10:17:31;;;;;;;30.70;20.70;;;7.60;92.50;;;;;;5035406;28;20448;-74
2020/12/12 10:19:57;;;;;;;32.33;20.02;;;7.60;93.20;;;;;;5035601;28;20415;-74
2020/12/12 10:22:23;;;;;;;32.20;19.75;;;7.70;93.50;;;;;;5038667;28;20414;-72
2020/12/12 10:24:48;;;;;;;33.33;20.63;;;7.70;93.50;;;;;;5033494;28;20729;-73
2020/12/12 10:27:14;;;;;;;35.30;20.30;;;7.70;93.70;;;;;;5030028;28;20405;-73
2020/12/12 10:29:39;;;;;;;31.70;20.63;;;7.80;92.80;;;;;;5031165;28;20403;-73
2020/12/12 10:32:05;;;;;;;33.80;20.17;;;7.90;91.80;;;;;;5030088;28;20399;-76
2020/12/12 10:34:30;;;;;;;35.53;21.27;;;7.90;91.10;;;;;;5039245;28;20421;-72
2020/12/12 10:36:56;;;;;;;31.63;20.47;;;7.90;90.30;;;;;;5042211;28;20865;-73
2020/12/12 10:39:31;;;;;;;33.60;20.87;;;8.00;89.50;;;;;;5045423;28;20492;-73
2020/12/12 10:42:00;;;;;;;35.57;21.53;;;8.00;88.60;;;;;;5046065;28;20530;-73
2020/12/12 10:44:26;;;;;;;36.70;21.37;;;8.10;90.00;;;;;;5029019;28;20383;-73
2020/12/12 10:46:52;;;;;;;37.78;22.98;;;8.10;88.90;;;;;;5028614;28;20395;-72
2020/12/12 10:49:18;;;;;;;35.50;22.67;;;8.10;89.50;;;;;;5029069;28;20506;-72
2020/12/12 10:51:52;;;;;;;31.92;20.55;;;8.10;89.70;;;;;;5031239;28;20409;-72
2020/12/12 10:54:18;;;;;;;36.35;21.48;;;8.10;89.40;;;;;;5040068;28;20400;-76
2020/12/12 10:56:45;;;;;;;30.80;20.40;;;8.10;88.90;;;;;;5028333;28;20482;-75
2020/12/12 10:59:11;;;;;;;32.40;20.05;;;8.20;89.30;;;;;;5041370;28;20537;-74
2020/12/12 11:01:37;;;;;;;31.25;20.73;;;8.30;85.60;;;;;;5029233;28;20415;-73
2020/12/12 11:04:03;;;;;;;29.83;20.23;;;8.30;87.20;;;;;;5036613;28;20710;-74
2020/12/12 11:06:29;;;;;;;32.33;20.67;;;8.40;88.40;;;;;;5032298;28;20416;-74
2020/12/12 11:08:55;;;;;;;29.67;20.00;;;8.50;87.50;;;;;;5052519;28;20409;-75
2020/12/12 11:11:20;;;;;;;28.37;18.70;;;8.50;86.20;;;;;;5035668;28;20490;-73
2020/12/12 11:13:46;;;;;;;29.37;19.07;;;8.50;84.40;;;;;;5049141;28;20397;-73
2020/12/12 11:16:11;;;;;;;29.13;18.77;;;8.50;83.00;;;;;;5051588;28;20389;-74
2020/12/12 11:18:37;;;;;;;29.17;19.33;;;8.50;83.90;;;;;;5039817;28;20395;-75
2020/12/12 11:21:02;;;;;;;30.17;19.13;;;8.60;83.80;;;;;;5032116;28;20479;-74
2020/12/12 11:23:28;;;;;;;26.60;18.03;;;8.60;81.90;;;;;;5042779;28;20389;-77
2020/12/12 11:25:55;;;;;;;28.10;18.02;;;8.60;80.20;;;;;;5032002;28;20402;-74
2020/12/12 11:28:21;;;;;;;27.67;18.27;;;8.70;80.00;;;;;;5033412;28;20465;-75
2020/12/12 11:30:46;;;;;;;30.30;18.67;;;8.60;79.30;;;;;;5030575;28;20890;-76
2020/12/12 11:33:12;;;;;;;28.17;18.90;;;8.60;79.80;;;;;;5031763;28;20441;-74
2020/12/12 11:36:08;;;;;;;30.40;18.43;;;8.60;81.10;;;;;;5036448;28;20400;-75
2020/12/12 11:48:48;;;;;;;29.60;18.95;;;8.60;80.50;;;;;;5031579;28;20899;-73
2020/12/12 11:51:14;;;;;;;34.40;20.42;;;8.70;81.10;;;;;;5031523;28;20399;-73
2020/12/12 11:53:40;;;;;;;31.38;20.25;;;8.70;79.90;;;;;;5051559;28;20711;-73
2020/12/12 11:56:06;;;;;;;31.30;18.73;;;8.70;80.40;;;;;;5050509;28;20882;-73
2020/12/12 11:58:32;;;;;;;28.95;17.48;;;8.80;79.30;;;;;;5050452;28;20409;-72
2020/12/12 12:00:58;;;;;;;30.88;18.02;;;8.80;79.30;;;;;;5050694;28;20890;-73
2020/12/12 12:03:24;;;;;;;30.77;18.87;;;8.80;80.20;;;;;;5047876;28;20462;-71
2020/12/12 12:05:51;;;;;;;29.70;18.47;;;8.80;80.50;;;;;;5032521;28;20407;-71
2020/12/12 12:11:29;;;;;;;32.95;19.00;;;8.80;79.70;;;;;;5035602;28;20425;-71
2020/12/12 12:13:40;;;;;;;29.27;18.83;;;8.80;80.00;;;;;;5037490;28;20396;-73
2020/12/12 12:16:06;;;;;;;31.10;18.93;;;8.80;80.40;;;;;;5031514;28;20399;-75
2020/12/12 12:18:32;;;;;;;27.60;18.17;;;8.80;80.50;;;;;;5046784;28;20394;-74
2020/12/12 12:20:59;;;;;;;31.80;19.30;;;8.90;81.30;;;;;;5033555;28;20811;-73
2020/12/12 12:23:25;;;;;;;32.95;19.70;;;8.90;79.10;;;;;;5046100;28;20393;-74
2020/12/12 12:25:51;;;;;;;31.95;18.15;;;8.90;78.90;;;;;;5044538;28;20402;-74
2020/12/12 12:28:18;;;;;;;32.05;18.90;;;8.90;79.70;;;;;;5034396;28;20412;-74
2020/12/12 12:30:44;;;;;;;28.15;17.52;;;9.00;80.20;;;;;;5034730;28;20415;-74
2020/12/12 12:33:10;;;;;;;32.10;17.55;;;8.90;80.90;;;;;;5035739;28;20940;-74
2020/12/12 12:35:35;;;;;;;34.33;19.38;;;9.00;80.40;;;;;;5049388;28;20391;-75
2020/12/12 12:38:01;;;;;;;32.58;19.48;;;8.90;81.10;;;;;;5042934;28;20398;-75
2020/12/12 12:40:26;;;;;;;27.77;17.13;;;9.00;81.00;;;;;;5050980;28;20499;-73
2020/12/12 12:42:52;;;;;;;28.67;18.63;;;9.00;80.20;;;;;;5048803;28;20393;-74
2020/12/12 12:45:17;;;;;;;31.00;19.37;;;9.00;80.40;;;;;;5047293;28;20417;-72
2020/12/12 12:47:43;;;;;;;31.73;18.50;;;9.00;78.70;;;;;;5040840;28;20393;-71
2020/12/12 12:50:08;;;;;;;30.50;18.10;;;9.00;79.00;;;;;;5033194;28;20456;-71
2020/12/12 12:52:34;;;;;;;31.23;19.10;;;8.90;80.10;;;;;;5038577;28;20438;-73